Time;durP1;ratioP1;P1;durP2;ratioP2;P2;SDS_P1;SDS_P2;PMS_P1;PMS_P2;Temp;Humidity;BMP_temperature;BMP_pressure;BME280_temperature;BME280_humidity;BME280_pressure;Samples;Min_cycle;Max_cycle;Signal;HPM_P1;HPM_P2
2021/01/17 00:01:04;;;;;;;9.68;4.30;;;-2.70;99.90;;;;;;4879901;29;20037;-63
2021/01/17 00:03:31;;;;;;;9.38;3.20;;;-2.80;99.90;;;;;;4876942;29;20127;-63
2021/01/17 00:05:57;;;;;;;15.52;4.88;;;-2.80;99.90;;;;;;4874092;29;20056;-62
2021/01/17 00:08:24;;;;;;;13.73;4.65;;;-2.80;99.90;;;;;;4875506;29;20059;-62
2021/01/17 00:10:50;;;;;;;14.23;5.07;;;-2.80;99.90;;;;;;4877798;29;20048;-62
2021/01/17 00:13:18;;;;;;;13.70;3.95;;;-2.80;99.90;;;;;;4874773;29;20481;-61
2021/01/17 00:15:45;;;;;;;12.48;4.90;;;-2.80;99.90;;;;;;4875885;29;20100;-62
2021/01/17 00:18:12;;;;;;;18.10;4.95;;;-2.80;99.90;;;;;;4859752;29;20049;-61
2021/01/17 00:20:45;;;;;;;12.52;4.55;;;-2.80;99.90;;;;;;4873395;29;20045;-62
2021/01/17 00:23:12;;;;;;;10.65;3.08;;;-2.80;99.90;;;;;;4875397;29;20053;-61
2021/01/17 00:25:39;;;;;;;9.00;3.67;;;-2.80;99.90;;;;;;4859084;29;20583;-62
2021/01/17 00:28:05;;;;;;;13.88;4.45;;;-2.70;99.90;;;;;;4858900;29;20055;-61
2021/01/17 00:30:33;;;;;;;11.23;4.63;;;-2.70;99.90;;;;;;4877925;29;20453;-63
2021/01/17 00:33:02;;;;;;;10.30;3.80;;;-2.70;99.90;;;;;;4843420;29;20056;-61
2021/01/17 00:35:30;;;;;;;13.32;4.20;;;-2.70;99.90;;;;;;4874838;29;20040;-61
2021/01/17 00:38:00;;;;;;;9.48;3.13;;;-2.70;99.90;;;;;;4877982;29;20052;-61
2021/01/17 00:40:27;;;;;;;12.18;4.00;;;-2.70;99.90;;;;;;4873157;29;20102;-62
2021/01/17 00:42:55;;;;;;;15.85;4.85;;;-2.70;99.90;;;;;;4854766;29;20404;-61
2021/01/17 00:45:24;;;;;;;12.95;4.32;;;-2.70;99.90;;;;;;4841405;29;20056;-62
2021/01/17 00:47:51;;;;;;;11.07;4.55;;;-2.80;99.90;;;;;;4859062;29;20789;-62
2021/01/17 00:50:21;;;;;;;10.73;3.80;;;-2.70;99.90;;;;;;4856948;29;20443;-62
2021/01/17 00:52:53;;;;;;;15.30;4.63;;;-2.80;99.90;;;;;;4840506;29;20132;-62
2021/01/17 00:55:23;;;;;;;14.40;4.82;;;-2.80;99.90;;;;;;4839559;29;20045;-62
2021/01/17 00:57:50;;;;;;;16.63;4.55;;;-2.80;99.90;;;;;;4840410;29;20478;-62
2021/01/17 01:00:19;;;;;;;13.65;4.22;;;-2.80;99.90;;;;;;4856031;29;20056;-61
2021/01/17 01:03:00;;;;;;;8.52;3.38;;;-2.70;99.90;;;;;;4851728;29;20436;-63
2021/01/17 01:05:26;;;;;;;14.27;5.63;;;-2.70;99.90;;;;;;4837294;29;20132;-62
2021/01/17 01:07:53;;;;;;;12.68;4.72;;;-2.70;99.90;;;;;;4855714;29;20109;-63
2021/01/17 01:10:20;;;;;;;16.38;6.03;;;-2.70;99.90;;;;;;4856449;29;20049;-62
2021/01/17 01:12:46;;;;;;;12.95;5.03;;;-2.60;99.90;;;;;;4856369;29;20102;-62
2021/01/17 01:15:13;;;;;;;16.05;5.45;;;-2.60;99.90;;;;;;4854441;29;20053;-62
2021/01/17 01:17:39;;;;;;;12.23;3.63;;;-2.60;99.90;;;;;;4840247;29;20049;-65
2021/01/17 01:20:06;;;;;;;15.05;4.80;;;-2.60;99.90;;;;;;4855318;29;20041;-64
2021/01/17 01:22:33;;;;;;;13.52;4.07;;;-2.60;99.90;;;;;;4857779;29;20056;-63
2021/01/17 01:24:59;;;;;;;10.45;2.72;;;-2.50;99.90;;;;;;4857512;29;20049;-62
2021/01/17 01:27:26;;;;;;;9.07;3.22;;;-2.60;99.90;;;;;;4861264;29;20738;-62
2021/01/17 01:29:53;;;;;;;9.80;3.05;;;-2.60;99.90;;;;;;4856040;29;20053;-62
2021/01/17 01:32:20;;;;;;;10.45;3.50;;;-2.60;99.90;;;;;;4856302;29;20128;-62
2021/01/17 01:34:46;;;;;;;16.05;3.78;;;-2.60;99.90;;;;;;4839012;29;20065;-63
2021/01/17 01:37:13;;;;;;;11.38;3.85;;;-2.60;99.90;;;;;;4839455;29;20042;-62
2021/01/17 01:39:39;;;;;;;10.27;3.15;;;-2.60;99.90;;;;;;4855562;29;20496;-62
2021/01/17 01:42:06;;;;;;;14.43;5.28;;;-2.60;99.90;;;;;;4850902;29;20068;-63
2021/01/17 01:44:34;;;;;;;13.40;4.25;;;-2.70;99.90;;;;;;4859331;29;20473;-63
2021/01/17 01:47:03;;;;;;;13.98;3.97;;;-2.70;99.90;;;;;;4874676;29;20127;-63
2021/01/17 01:49:30;;;;;;;8.73;2.55;;;-2.70;99.90;;;;;;4874461;29;20109;-62
2021/01/17 01:52:00;;;;;;;7.80;2.55;;;-2.70;99.90;;;;;;4876167;29;20049;-63
2021/01/17 01:54:27;;;;;;;10.60;3.10;;;-2.70;99.90;;;;;;4873845;29;20049;-63
2021/01/17 01:56:54;;;;;;;10.43;3.08;;;-2.70;99.90;;;;;;4860295;29;20719;-62
2021/01/17 01:59:21;;;;;;;11.50;3.10;;;-2.70;99.90;;;;;;4875457;29;20041;-63
2021/01/17 02:01:53;;;;;;;7.70;2.67;;;-2.70;99.90;;;;;;4875381;29;20060;-62
2021/01/17 02:04:20;;;;;;;13.43;3.50;;;-2.70;99.90;;;;;;4857813;29;20049;-64
2021/01/17 02:07:34;;;;;;;10.48;3.33;;;-2.80;99.90;;;;;;4874018;29;20109;-65
2021/01/17 02:10:01;;;;;;;10.15;3.03;;;-2.80;99.90;;;;;;4839242;29;20057;-62
2021/01/17 02:12:36;;;;;;;10.65;3.10;;;-2.80;99.90;;;;;;4857516;29;20053;-64
2021/01/17 02:15:07;;;;;;;6.53;2.15;;;-2.80;99.90;;;;;;4858938;29;20522;-62
2021/01/17 02:17:36;;;;;;;9.50;3.20;;;-2.80;99.90;;;;;;4857948;29;20073;-62
2021/01/17 02:20:08;;;;;;;8.07;3.05;;;-2.90;99.90;;;;;;4873763;29;20086;-62
2021/01/17 02:22:46;;;;;;;11.43;3.05;;;-2.90;99.90;;;;;;4871633;29;20057;-65
2021/01/17 02:25:14;;;;;;;10.70;3.83;;;-2.80;99.90;;;;;;4859382;29;20377;-63
2021/01/17 02:27:44;;;;;;;11.00;3.03;;;-2.90;99.90;;;;;;4859538;29;20057;-62
2021/01/17 02:30:13;;;;;;;9.65;3.30;;;-2.90;99.90;;;;;;4874776;29;20041;-63
2021/01/17 02:32:54;;;;;;;12.73;3.03;;;-3.00;99.90;;;;;;4874540;29;20056;-61
2021/01/17 02:35:24;;;;;;;13.35;3.75;;;-2.90;99.90;;;;;;4877040;29;20384;-62
2021/01/17 02:38:19;;;;;;;12.13;3.17;;;-2.90;99.90;;;;;;4874879;29;20057;-62
2021/01/17 02:41:06;;;;;;;11.52;3.05;;;-2.90;99.90;;;;;;4849693;29;20113;-61
2021/01/17 02:43:34;;;;;;;8.48;2.33;;;-2.80;99.90;;;;;;4871184;29;20477;-61
2021/01/17 02:46:00;;;;;;;16.20;3.85;;;-2.90;99.90;;;;;;4876856;29;20048;-61
2021/01/17 02:48:27;;;;;;;11.45;3.30;;;-2.90;99.90;;;;;;4861031;29;20488;-63
2021/01/17 02:50:54;;;;;;;10.77;3.33;;;-2.90;99.90;;;;;;4860814;29;20052;-61
2021/01/17 02:53:40;;;;;;;8.75;2.58;;;-2.90;99.90;;;;;;4859826;29;20403;-63
2021/01/17 02:56:12;;;;;;;14.00;3.70;;;-2.90;99.90;;;;;;4875622;29;20136;-61
2021/01/17 02:58:41;;;;;;;11.30;3.08;;;-2.90;99.90;;;;;;4861418;29;20049;-62
2021/01/17 03:01:12;;;;;;;10.13;3.45;;;-2.90;99.90;;;;;;4878774;29;20037;-61
2021/01/17 03:03:42;;;;;;;15.63;3.70;;;-2.90;99.90;;;;;;4861475;29;20088;-61
2021/01/17 03:06:10;;;;;;;11.75;3.30;;;-2.90;99.90;;;;;;4874876;29;20053;-61
2021/01/17 03:08:37;;;;;;;12.77;4.15;;;-2.90;99.90;;;;;;4879591;29;20047;-61
2021/01/17 03:11:04;;;;;;;7.15;2.65;;;-2.90;99.90;;;;;;4877235;29;20053;-62
2021/01/17 03:13:34;;;;;;;8.63;3.55;;;-3.00;99.90;;;;;;4877470;29;20503;-61
2021/01/17 03:16:01;;;;;;;11.18;3.63;;;-3.00;99.90;;;;;;4878406;29;20049;-62
2021/01/17 03:18:27;;;;;;;9.32;2.72;;;-3.10;99.90;;;;;;4877799;29;20077;-61
2021/01/17 03:20:54;;;;;;;12.20;3.47;;;-3.10;99.90;;;;;;4879510;29;20045;-62
2021/01/17 03:23:20;;;;;;;11.43;3.28;;;-3.10;99.90;;;;;;4868907;29;20041;-62
2021/01/17 03:25:47;;;;;;;12.70;4.05;;;-3.10;99.90;;;;;;4877709;29;20055;-62
2021/01/17 03:28:13;;;;;;;14.05;3.33;;;-3.10;99.90;;;;;;4861355;29;20097;-61
2021/01/17 03:30:40;;;;;;;11.75;3.63;;;-3.10;99.90;;;;;;4876924;29;20060;-62
2021/01/17 03:33:06;;;;;;;10.27;3.10;;;-3.10;99.90;;;;;;4876726;29;20041;-62
2021/01/17 03:35:33;;;;;;;9.48;3.67;;;-3.20;99.90;;;;;;4876319;29;20059;-61
2021/01/17 03:38:00;;;;;;;10.50;2.92;;;-3.30;99.90;;;;;;4875793;29;20045;-62
2021/01/17 03:40:26;;;;;;;12.75;3.25;;;-3.30;99.90;;;;;;4861371;29;20097;-62
2021/01/17 03:42:53;;;;;;;11.35;3.00;;;-3.30;99.90;;;;;;4878747;29;20596;-62
2021/01/17 03:45:20;;;;;;;14.40;4.03;;;-3.30;99.90;;;;;;4877788;29;20553;-61
2021/01/17 03:47:46;;;;;;;11.30;3.10;;;-3.30;99.90;;;;;;4876978;29;20064;-62
2021/01/17 03:50:13;;;;;;;16.10;3.92;;;-3.40;99.90;;;;;;4859550;29;20045;-62
2021/01/17 03:52:40;;;;;;;14.07;4.00;;;-3.40;99.90;;;;;;4876053;29;20041;-62
2021/01/17 03:55:07;;;;;;;9.15;3.28;;;-3.40;99.90;;;;;;4878102;29;20037;-61
2021/01/17 03:57:33;;;;;;;14.32;4.65;;;-3.40;99.90;;;;;;4860808;29;20564;-61
2021/01/17 04:00:00;;;;;;;12.52;3.75;;;-3.40;99.90;;;;;;4860234;29;20049;-61
2021/01/17 04:02:26;;;;;;;13.07;3.35;;;-3.40;99.90;;;;;;4875513;29;20176;-63
2021/01/17 04:04:53;;;;;;;11.43;3.92;;;-3.50;99.90;;;;;;4876163;29;20049;-64
2021/01/17 04:07:20;;;;;;;11.50;3.65;;;-3.50;99.90;;;;;;4878127;29;20041;-61
2021/01/17 04:09:46;;;;;;;18.33;4.55;;;-3.40;99.90;;;;;;4877970;29;20041;-61
2021/01/17 04:12:13;;;;;;;16.95;4.70;;;-3.40;99.90;;;;;;4877552;29;20049;-62
2021/01/17 04:14:39;;;;;;;15.70;4.32;;;-3.40;99.90;;;;;;4875746;29;20055;-62
2021/01/17 04:17:06;;;;;;;14.00;4.25;;;-3.50;99.90;;;;;;4876102;29;20051;-61
2021/01/17 04:19:32;;;;;;;17.40;4.60;;;-3.50;99.90;;;;;;4875907;29;20059;-61
2021/01/17 04:21:59;;;;;;;12.50;4.00;;;-3.50;99.90;;;;;;4875621;29;20350;-61
2021/01/17 04:24:25;;;;;;;14.88;4.53;;;-3.50;99.90;;;;;;4876583;29;20049;-61
2021/01/17 04:26:59;;;;;;;14.65;4.03;;;-3.60;99.90;;;;;;4874467;29;20061;-62
2021/01/17 04:29:26;;;;;;;18.60;4.38;;;-3.60;99.90;;;;;;4875895;29;20060;-62
2021/01/17 04:31:53;;;;;;;10.88;3.92;;;-3.60;99.90;;;;;;4875532;29;20053;-63
2021/01/17 04:34:22;;;;;;;11.68;3.83;;;-3.50;99.90;;;;;;4878108;29;20043;-63
2021/01/17 04:36:49;;;;;;;11.18;3.50;;;-3.50;99.90;;;;;;4858797;29;20109;-61
2021/01/17 04:39:16;;;;;;;12.85;4.18;;;-3.60;99.90;;;;;;4858958;29;20041;-62
2021/01/17 04:41:45;;;;;;;14.52;4.65;;;-3.50;99.90;;;;;;4858715;29;20057;-62
2021/01/17 04:44:12;;;;;;;9.80;3.25;;;-3.50;99.90;;;;;;4858537;29;20061;-62
2021/01/17 04:46:40;;;;;;;13.63;4.30;;;-3.50;99.90;;;;;;4874858;29;20568;-62
2021/01/17 04:49:09;;;;;;;14.98;4.93;;;-3.50;99.90;;;;;;4859064;29;20077;-63
2021/01/17 04:51:36;;;;;;;17.25;5.28;;;-3.50;99.90;;;;;;4859176;29;20416;-61
2021/01/17 04:54:04;;;;;;;17.48;4.53;;;-3.50;99.90;;;;;;4843200;29;20460;-62
2021/01/17 04:56:34;;;;;;;13.32;4.10;;;-3.40;99.90;;;;;;4875238;29;20052;-61
2021/01/17 04:59:14;;;;;;;14.50;3.30;;;-3.40;99.90;;;;;;4873083;29;20045;-60
2021/01/17 05:01:46;;;;;;;11.40;3.08;;;-3.40;99.90;;;;;;4874048;29;20068;-62
2021/01/17 05:04:44;;;;;;;12.18;4.30;;;-3.30;99.90;;;;;;4875570;29;20057;-61
2021/01/17 05:07:37;;;;;;;12.52;3.78;;;-3.30;99.90;;;;;;4861515;29;20059;-63
2021/01/17 05:10:04;;;;;;;14.50;3.97;;;-3.40;99.90;;;;;;4871759;29;20068;-61
2021/01/17 05:12:50;;;;;;;16.13;5.05;;;-3.30;99.90;;;;;;4875173;29;20832;-61
2021/01/17 05:15:20;;;;;;;14.88;4.13;;;-3.30;99.90;;;;;;4859929;29;20381;-61
2021/01/17 05:17:47;;;;;;;15.18;4.78;;;-3.30;99.90;;;;;;4863395;29;20068;-61
2021/01/17 05:20:14;;;;;;;13.00;3.22;;;-3.20;99.90;;;;;;4858526;29;20108;-61
2021/01/17 05:22:43;;;;;;;14.70;3.88;;;-3.20;99.90;;;;;;4857766;29;20045;-61
2021/01/17 05:25:10;;;;;;;12.98;4.30;;;-3.30;99.90;;;;;;4874781;29;20053;-62
2021/01/17 05:27:37;;;;;;;15.25;4.75;;;-3.20;99.90;;;;;;4875108;29;20601;-62
2021/01/17 05:30:06;;;;;;;12.15;3.83;;;-3.20;99.90;;;;;;4875030;29;20045;-62
2021/01/17 05:32:33;;;;;;;14.18;4.40;;;-3.20;99.90;;;;;;4873420;29;20069;-63
2021/01/17 05:35:01;;;;;;;13.10;4.28;;;-3.20;99.90;;;;;;4857891;29;20048;-63
2021/01/17 05:37:31;;;;;;;9.98;2.90;;;-3.20;99.90;;;;;;4874431;29;20473;-62
2021/01/17 05:40:04;;;;;;;10.70;4.07;;;-3.20;99.90;;;;;;4874959;29;20045;-61
2021/01/17 05:42:38;;;;;;;;;;;-3.20;99.90;;;;;;4858426;29;20600;-61
2021/01/17 05:45:18;;;;;;;16.60;5.43;;;-3.20;99.90;;;;;;4874093;29;19950;-62
2021/01/17 05:48:00;;;;;;;12.35;3.35;;;-3.20;99.90;;;;;;4872968;29;20135;-63
2021/01/17 05:50:28;;;;;;;12.65;3.85;;;-3.20;99.90;;;;;;4875023;29;20382;-62
2021/01/17 05:53:05;;;;;;;14.02;4.35;;;-3.20;99.90;;;;;;4874470;29;20045;-63
2021/01/17 05:55:34;;;;;;;25.90;5.57;;;-3.20;99.90;;;;;;4875657;29;20500;-63
2021/01/17 05:58:25;;;;;;;16.45;4.60;;;-3.20;99.90;;;;;;4874644;29;20100;-62
2021/01/17 06:00:57;;;;;;;14.55;3.67;;;-3.20;99.90;;;;;;4874885;29;20465;-62
2021/01/17 06:03:32;;;;;;;18.63;4.73;;;-3.20;99.90;;;;;;4877700;29;20049;-63
2021/01/17 06:06:01;;;;;;;11.35;3.83;;;-3.20;99.90;;;;;;4875591;29;20049;-63
2021/01/17 06:08:29;;;;;;;13.52;5.22;;;-3.20;99.90;;;;;;4867462;29;20658;-64
2021/01/17 06:11:06;;;;;;;15.48;4.35;;;-3.20;99.90;;;;;;4858517;29;20045;-62
2021/01/17 06:13:35;;;;;;;13.45;4.63;;;-3.20;99.90;;;;;;4863025;29;20049;-63
2021/01/17 06:16:02;;;;;;;18.17;3.92;;;-3.20;99.90;;;;;;4882612;29;20052;-62
2021/01/17 06:18:30;;;;;;;13.02;3.97;;;-3.20;99.90;;;;;;4870968;29;20041;-62
2021/01/17 06:20:57;;;;;;;10.98;3.72;;;-3.10;99.90;;;;;;4861508;29;20052;-62
2021/01/17 06:23:25;;;;;;;11.98;3.30;;;-3.10;99.90;;;;;;4878968;29;20081;-61
2021/01/17 06:26:02;;;;;;;21.25;6.78;;;-3.10;99.90;;;;;;4879974;29;20536;-61
2021/01/17 06:28:40;;;;;;;18.05;7.50;;;-3.10;99.90;;;;;;4875127;29;20245;-61
2021/01/17 06:31:09;;;;;;;24.83;7.28;;;-3.10;99.90;;;;;;4862163;29;20076;-62
2021/01/17 06:33:36;;;;;;;31.48;9.57;;;-3.00;99.90;;;;;;4861312;29;20077;-61
2021/01/17 06:36:12;;;;;;;21.65;6.40;;;-3.10;99.90;;;;;;4870993;29;20048;-63
2021/01/17 06:38:39;;;;;;;26.38;6.95;;;-3.00;99.90;;;;;;4860808;29;20056;-61
2021/01/17 06:41:06;;;;;;;25.77;6.00;;;-3.00;99.90;;;;;;4877746;29;20076;-62
2021/01/17 06:43:40;;;;;;;12.95;5.05;;;-3.00;99.90;;;;;;4861919;29;20048;-62
2021/01/17 06:46:07;;;;;;;39.75;9.35;;;-3.00;99.90;;;;;;4877048;29;20053;-61
2021/01/17 06:48:34;;;;;;;15.73;5.40;;;-3.00;99.90;;;;;;4879086;29;20085;-62
2021/01/17 06:51:17;;;;;;;20.25;5.82;;;-2.90;99.90;;;;;;4879454;29;20045;-63
2021/01/17 06:53:55;;;;;;;19.55;5.70;;;-2.90;99.90;;;;;;4873390;29;20068;-64
2021/01/17 06:56:22;;;;;;;11.73;4.93;;;-2.90;99.90;;;;;;4864765;29;20047;-62
2021/01/17 06:58:52;;;;;;;13.23;5.35;;;-2.90;99.90;;;;;;4878839;29;20060;-63
2021/01/17 07:01:28;;;;;;;20.23;5.82;;;-2.80;99.90;;;;;;4876466;29;20132;-61
2021/01/17 07:04:15;;;;;;;21.73;6.40;;;-2.80;99.90;;;;;;4875132;29;20055;-63
2021/01/17 07:06:54;;;;;;;15.82;5.18;;;-2.80;99.90;;;;;;4872053;29;20080;-62
2021/01/17 07:09:31;;;;;;;13.10;4.35;;;-2.90;99.90;;;;;;4877445;29;20053;-63
2021/01/17 07:12:19;;;;;;;15.00;5.20;;;-2.90;99.90;;;;;;4875082;29;20053;-62
2021/01/17 07:14:56;;;;;;;17.20;6.28;;;-2.90;99.90;;;;;;4875910;29;20049;-63
2021/01/17 07:17:30;;;;;;;19.17;5.28;;;-2.90;99.90;;;;;;4844147;29;20076;-62
2021/01/17 07:20:00;;;;;;;15.73;5.78;;;-2.90;99.90;;;;;;4875626;29;20400;-62
2021/01/17 07:22:30;;;;;;;13.18;4.72;;;-2.80;99.90;;;;;;4876539;29;20052;-62
2021/01/17 07:25:00;;;;;;;18.27;4.97;;;-2.80;99.90;;;;;;4877253;29;20521;-63
2021/01/17 07:27:59;;;;;;;19.85;5.70;;;-2.70;99.90;;;;;;4864428;29;20388;-61
2021/01/17 07:31:06;;;;;;;14.90;4.45;;;-2.70;99.90;;;;;;4875927;29;20041;-62
2021/01/17 07:33:39;;;;;;;22.70;7.28;;;-2.80;99.90;;;;;;4876226;29;20556;-63
2021/01/17 07:36:08;;;;;;;13.98;4.43;;;-2.70;99.90;;;;;;4874893;29;20112;-62
2021/01/17 07:38:45;;;;;;;16.45;4.20;;;-2.60;99.90;;;;;;4876802;29;20037;-62
2021/01/17 07:41:14;;;;;;;15.93;6.38;;;-2.60;99.90;;;;;;4853640;29;20049;-62
2021/01/17 07:43:45;;;;;;;15.82;5.07;;;-2.50;99.90;;;;;;4865831;29;20201;-60
2021/01/17 07:46:15;;;;;;;15.88;4.75;;;-2.50;99.90;;;;;;4868551;29;20041;-61
2021/01/17 07:48:45;;;;;;;17.88;5.30;;;-2.40;99.90;;;;;;4873375;29;20048;-63
2021/01/17 07:51:14;;;;;;;16.88;4.68;;;-2.40;99.90;;;;;;4875611;29;20409;-62
2021/01/17 07:53:46;;;;;;;16.27;4.80;;;-2.40;99.90;;;;;;4879417;29;20079;-63
2021/01/17 07:56:24;;;;;;;20.77;5.30;;;-2.30;99.90;;;;;;4881663;29;20041;-62
2021/01/17 07:58:53;;;;;;;17.27;4.50;;;-2.30;99.90;;;;;;4884783;29;20040;-63
2021/01/17 08:01:31;;;;;;;12.88;4.75;;;-2.20;99.90;;;;;;4877252;29;20077;-62
2021/01/17 08:04:01;;;;;;;14.55;4.03;;;-2.10;99.90;;;;;;4861556;29;20053;-62
2021/01/17 08:06:54;;;;;;;15.20;4.38;;;-2.10;99.90;;;;;;4869442;29;20060;-63
2021/01/17 08:09:40;;;;;;;;;;;-2.00;99.90;;;;;;4865533;29;20063;-63
2021/01/17 08:12:06;;;;;;;20.40;6.95;;;-2.00;99.90;;;;;;4856399;29;19928;-63
2021/01/17 08:14:40;;;;;;;13.80;5.20;;;-1.90;99.90;;;;;;4876642;29;20157;-63
2021/01/17 08:17:19;;;;;;;14.20;4.65;;;-1.90;99.90;;;;;;4877174;29;20077;-63
2021/01/17 08:19:52;;;;;;;12.30;4.07;;;-1.90;99.90;;;;;;4876078;29;20041;-63
2021/01/17 08:22:21;;;;;;;22.77;7.32;;;-1.80;99.90;;;;;;4875932;29;20041;-62
2021/01/17 08:24:53;;;;;;;15.27;5.80;;;-1.80;99.90;;;;;;4876315;29;20127;-61
2021/01/17 08:27:32;;;;;;;12.07;4.10;;;-1.70;99.90;;;;;;4852433;29;20049;-61
2021/01/17 08:30:07;;;;;;;17.00;4.78;;;-1.70;99.90;;;;;;4879895;29;20056;-62
2021/01/17 08:32:41;;;;;;;15.90;4.55;;;-1.60;99.90;;;;;;4879207;29;20049;-62
2021/01/17 08:35:20;;;;;;;15.50;5.97;;;-1.60;99.90;;;;;;4863226;29;20140;-65
2021/01/17 08:37:51;;;;;;;15.48;6.20;;;-1.60;99.90;;;;;;4874647;29;20073;-62
2021/01/17 08:40:39;;;;;;;15.23;5.10;;;-1.60;99.90;;;;;;4876224;29;20037;-62
2021/01/17 08:43:09;;;;;;;14.85;5.13;;;-1.50;99.90;;;;;;4865308;29;20422;-62
2021/01/17 08:45:38;;;;;;;15.63;5.90;;;-1.40;99.90;;;;;;4867011;29;20047;-62
2021/01/17 08:48:17;;;;;;;15.25;4.97;;;-1.40;99.90;;;;;;4870570;29;20045;-62
2021/01/17 08:50:45;;;;;;;17.73;5.35;;;-1.30;99.90;;;;;;4859035;29;20045;-62
2021/01/17 08:53:30;;;;;;;13.18;4.60;;;-1.20;99.90;;;;;;4858761;29;20108;-62
2021/01/17 08:55:59;;;;;;;12.15;4.45;;;-1.10;99.90;;;;;;4874847;29;20056;-62
2021/01/17 08:58:25;;;;;;;23.55;7.03;;;-1.00;99.90;;;;;;4874311;29;20052;-63
2021/01/17 09:00:52;;;;;;;15.85;6.25;;;-1.00;99.90;;;;;;4875695;29;20045;-62
2021/01/17 09:03:36;;;;;;;20.05;6.32;;;-0.90;99.90;;;;;;4876014;29;20123;-62
2021/01/17 09:06:24;;;;;;;25.50;9.35;;;-1.00;99.40;;;;;;4875278;29;20056;-62
2021/01/17 09:08:54;;;;;;;13.82;5.53;;;-0.90;99.60;;;;;;4861160;29;20073;-62
2021/01/17 09:11:29;;;;;;;18.23;6.65;;;-0.80;98.90;;;;;;4876167;29;20060;-62
2021/01/17 09:14:24;;;;;;;12.82;4.88;;;-0.80;99.00;;;;;;4875847;29;20152;-61
2021/01/17 09:16:54;;;;;;;15.68;5.80;;;-0.70;98.40;;;;;;4875587;29;20073;-62
2021/01/17 09:19:25;;;;;;;12.57;4.95;;;-0.70;97.40;;;;;;4875840;29;20052;-62
2021/01/17 09:21:53;;;;;;;14.00;4.90;;;-0.70;97.70;;;;;;4876562;29;20041;-62
2021/01/17 09:24:26;;;;;;;15.52;5.25;;;-0.60;97.40;;;;;;4875504;29;20434;-62
2021/01/17 09:26:59;;;;;;;12.27;4.10;;;-0.50;96.90;;;;;;4871832;29;20294;-62
2021/01/17 09:29:34;;;;;;;20.42;7.18;;;-0.50;96.60;;;;;;4870915;29;20092;-62
2021/01/17 09:32:13;;;;;;;14.82;4.88;;;-0.30;96.80;;;;;;4875891;29;20401;-62
2021/01/17 09:34:42;;;;;;;17.60;6.25;;;-0.20;96.40;;;;;;4843130;29;20048;-61
2021/01/17 09:37:11;;;;;;;11.50;4.43;;;-0.10;96.30;;;;;;4879917;29;20068;-61
2021/01/17 09:39:43;;;;;;;13.98;4.40;;;0.00;95.60;;;;;;4848110;29;20453;-62
2021/01/17 09:42:12;;;;;;;16.40;6.18;;;0.10;94.70;;;;;;4861464;29;20109;-61
2021/01/17 09:44:41;;;;;;;13.73;4.40;;;0.20;94.80;;;;;;4841547;29;20468;-62
2021/01/17 09:47:18;;;;;;;13.57;4.55;;;0.20;93.30;;;;;;4842153;29;20057;-61
2021/01/17 09:49:46;;;;;;;17.10;4.75;;;0.20;92.70;;;;;;4856860;29;20136;-61
2021/01/17 09:52:22;;;;;;;14.57;5.10;;;0.10;93.10;;;;;;4856691;29;20049;-60
2021/01/17 09:54:50;;;;;;;19.65;6.10;;;0.10;93.40;;;;;;4855983;29;20060;-61
2021/01/17 09:57:23;;;;;;;13.15;4.97;;;0.10;92.60;;;;;;4857427;29;20049;-61
2021/01/17 09:59:52;;;;;;;16.73;5.75;;;0.10;92.10;;;;;;4857221;29;20509;-61
2021/01/17 10:02:21;;;;;;;15.55;5.45;;;0.00;92.30;;;;;;4852616;29;20049;-62
2021/01/17 10:04:49;;;;;;;14.95;5.47;;;0.00;92.20;;;;;;4856236;29;20140;-61
2021/01/17 10:07:17;;;;;;;15.52;5.18;;;0.00;92.40;;;;;;4857224;29;20132;-61
2021/01/17 10:09:45;;;;;;;17.02;6.13;;;0.00;92.00;;;;;;4839584;29;20045;-62
2021/01/17 10:12:11;;;;;;;15.32;4.78;;;0.00;91.20;;;;;;4841486;29;20046;-63
2021/01/17 10:14:39;;;;;;;9.30;3.67;;;0.00;91.50;;;;;;4840027;29;20595;-62
2021/01/17 10:17:06;;;;;;;9.75;4.07;;;0.00;91.20;;;;;;4858368;29;20053;-62
2021/01/17 10:19:39;;;;;;;10.63;4.15;;;0.10;91.30;;;;;;4856956;29;20069;-61
2021/01/17 10:22:10;;;;;;;11.48;4.40;;;0.20;91.00;;;;;;4825011;29;20048;-60
2021/01/17 10:24:37;;;;;;;12.70;4.50;;;0.40;90.80;;;;;;4840022;29;20593;-61
2021/01/17 10:27:06;;;;;;;11.68;4.07;;;0.70;90.40;;;;;;4841258;29;20378;-61
2021/01/17 10:29:41;;;;;;;14.10;4.70;;;1.00;88.80;;;;;;4857417;29;20535;-62
2021/01/17 10:32:10;;;;;;;16.30;4.97;;;1.30;88.50;;;;;;4856672;29;20053;-62
2021/01/17 10:34:47;;;;;;;14.70;4.85;;;1.60;87.80;;;;;;4860639;29;20041;-62
2021/01/17 10:37:16;;;;;;;11.77;4.47;;;1.80;85.40;;;;;;4855524;29;20057;-61
2021/01/17 10:39:58;;;;;;;14.30;4.00;;;1.80;83.80;;;;;;4854314;29;20046;-61
2021/01/17 10:42:31;;;;;;;15.20;5.53;;;1.90;83.30;;;;;;4839204;29;20057;-61
2021/01/17 10:45:10;;;;;;;14.95;4.63;;;1.90;83.40;;;;;;4855315;29;20041;-61
2021/01/17 10:47:58;;;;;;;13.85;4.68;;;1.90;83.50;;;;;;4873063;29;20049;-61
2021/01/17 10:50:26;;;;;;;14.43;5.20;;;1.70;82.60;;;;;;4857045;29;20069;-62
2021/01/17 10:53:13;;;;;;;12.70;4.75;;;1.70;83.30;;;;;;4857144;29;20453;-62
2021/01/17 10:55:44;;;;;;;12.93;4.25;;;1.90;82.80;;;;;;4856027;29;20510;-63
2021/01/17 10:58:17;;;;;;;11.80;4.18;;;2.20;81.60;;;;;;4867842;29;20514;-61
2021/01/17 11:00:54;;;;;;;16.10;5.50;;;2.40;80.70;;;;;;4868070;29;20134;-62
2021/01/17 11:03:39;;;;;;;14.85;5.78;;;2.50;81.70;;;;;;4841949;29;20443;-62
2021/01/17 11:06:21;;;;;;;15.63;6.78;;;2.70;80.80;;;;;;4857761;29;20053;-62
2021/01/17 11:08:53;;;;;;;15.85;6.32;;;2.80;77.00;;;;;;4874188;29;20065;-62
2021/01/17 11:11:22;;;;;;;16.83;6.15;;;2.70;76.80;;;;;;4846155;29;20041;-62
2021/01/17 11:14:03;;;;;;;15.57;6.03;;;2.60;76.10;;;;;;4859038;29;20410;-61
2021/01/17 11:16:42;;;;;;;15.90;6.05;;;2.40;77.60;;;;;;4857273;29;20500;-63
2021/01/17 11:19:12;;;;;;;15.32;5.22;;;2.40;77.60;;;;;;4859610;29;20106;-62
2021/01/17 11:21:45;;;;;;;12.43;4.68;;;2.30;77.20;;;;;;4830017;29;20034;-62
2021/01/17 11:24:13;;;;;;;18.33;5.10;;;2.10;79.60;;;;;;4859738;29;20057;-62
2021/01/17 11:26:40;;;;;;;19.67;8.35;;;2.20;79.60;;;;;;4859179;29;20137;-62
2021/01/17 11:29:16;;;;;;;12.05;4.72;;;2.20;77.80;;;;;;4857570;29;20072;-64
2021/01/17 11:31:44;;;;;;;16.55;6.55;;;2.00;76.80;;;;;;4867235;29;20057;-61
2021/01/17 11:34:15;;;;;;;18.25;5.90;;;1.90;77.70;;;;;;4835574;29;20661;-61
2021/01/17 11:36:42;;;;;;;15.45;5.28;;;1.60;78.90;;;;;;4858313;29;20414;-61
2021/01/17 11:39:18;;;;;;;15.70;5.43;;;1.30;79.60;;;;;;4860603;29;20516;-62
2021/01/17 11:41:45;;;;;;;14.48;5.20;;;1.20;79.40;;;;;;4869962;29;20080;-62
2021/01/17 11:44:17;;;;;;;11.70;5.20;;;1.30;81.10;;;;;;4876766;29;20136;-62
2021/01/17 11:46:45;;;;;;;14.83;5.10;;;1.40;82.90;;;;;;4875362;29;20059;-62
2021/01/17 11:49:12;;;;;;;13.50;4.47;;;1.40;80.30;;;;;;4849749;29;20056;-62
2021/01/17 11:51:39;;;;;;;13.40;5.72;;;1.50;79.20;;;;;;4868392;29;20156;-62
2021/01/17 11:54:09;;;;;;;13.38;4.85;;;1.60;80.00;;;;;;4864630;29;20052;-63
2021/01/17 11:56:36;;;;;;;13.50;4.55;;;1.60;79.50;;;;;;4866735;29;20168;-61
2021/01/17 11:59:03;;;;;;;14.45;5.80;;;1.50;76.90;;;;;;4852023;29;20762;-62
2021/01/17 12:01:30;;;;;;;15.82;6.18;;;1.40;77.10;;;;;;4866629;29;20486;-62
2021/01/17 12:04:02;;;;;;;13.65;5.30;;;1.40;77.90;;;;;;4845367;29;20045;-62
2021/01/17 12:06:29;;;;;;;14.00;4.90;;;1.40;77.90;;;;;;4865973;29;20053;-62
2021/01/17 12:09:08;;;;;;;10.68;4.13;;;1.40;77.00;;;;;;4852238;29;20065;-63
2021/01/17 12:11:39;;;;;;;9.35;4.60;;;1.40;78.00;;;;;;4848975;29;20072;-61
2021/01/17 12:14:23;;;;;;;14.93;4.88;;;1.50;77.70;;;;;;4879105;29;20048;-61
2021/01/17 12:16:55;;;;;;;14.27;4.95;;;1.50;78.90;;;;;;4859179;29;20100;-62
2021/01/17 12:19:24;;;;;;;13.43;5.68;;;1.30;78.30;;;;;;4872078;29;20500;-62
2021/01/17 12:21:58;;;;;;;15.65;5.80;;;1.20;78.50;;;;;;4875962;29;20052;-62
2021/01/17 12:24:26;;;;;;;17.40;5.50;;;1.10;79.50;;;;;;4838382;29;20470;-61
2021/01/17 12:26:54;;;;;;;12.90;4.93;;;1.20;80.00;;;;;;4863206;29;20405;-62
2021/01/17 12:29:21;;;;;;;15.45;6.38;;;1.30;79.30;;;;;;4844026;29;20067;-62
2021/01/17 12:31:48;;;;;;;13.50;5.10;;;1.40;79.70;;;;;;4857929;29;20049;-62
2021/01/17 12:34:16;;;;;;;14.52;6.03;;;1.50;80.00;;;;;;4861402;29;20129;-61
2021/01/17 12:36:44;;;;;;;17.88;6.43;;;1.50;79.10;;;;;;4862537;29;20052;-62
2021/01/17 12:39:14;;;;;;;17.70;6.53;;;1.60;77.20;;;;;;4850604;29;20063;-61
2021/01/17 12:41:45;;;;;;;19.05;5.60;;;1.50;76.70;;;;;;4855448;29;20053;-66
2021/01/17 12:44:14;;;;;;;21.27;7.57;;;1.30;77.40;;;;;;4876111;29;20497;-62
2021/01/17 12:46:41;;;;;;;23.17;6.90;;;1.20;78.10;;;;;;4876540;29;20504;-62
2021/01/17 12:49:08;;;;;;;17.63;6.47;;;1.40;78.60;;;;;;4860841;29;20116;-61
2021/01/17 12:51:35;;;;;;;18.33;7.07;;;1.70;78.10;;;;;;4878172;29;20053;-62
2021/01/17 12:54:02;;;;;;;16.52;6.22;;;1.90;74.50;;;;;;4869233;29;20056;-61
2021/01/17 12:56:28;;;;;;;17.10;5.22;;;2.20;75.70;;;;;;4862123;29;20401;-61
2021/01/17 12:58:55;;;;;;;19.17;5.82;;;2.40;73.30;;;;;;4856179;29;20049;-62
2021/01/17 13:01:22;;;;;;;19.42;6.85;;;2.40;71.00;;;;;;4860342;29;20056;-62